sensor_id;sensor_type;location;lat;lon;timestamp;temperature;humidity
25188;DHT22;13141;50.414;8.050;2023-06-10T00:00:46;20.90;99.90
25188;DHT22;13141;50.414;8.050;2023-06-10T00:03:12;20.90;99.90
25188;DHT22;13141;50.414;8.050;2023-06-10T00:05:38;20.80;99.90
25188;DHT22;13141;50.414;8.050;2023-06-10T00:08:05;20.60;99.90
25188;DHT22;13141;50.414;8.050;2023-06-10T00:10:31;20.30;99.90
25188;DHT22;13141;50.414;8.050;2023-06-10T00:12:56;20.10;99.90
25188;DHT22;13141;50.414;8.050;2023-06-10T00:15:22;19.90;99.90
25188;DHT22;13141;50.414;8.050;2023-06-10T00:17:47;19.80;99.90
25188;DHT22;13141;50.414;8.050;2023-06-10T00:20:14;19.80;99.90
25188;DHT22;13141;50.414;8.050;2023-06-10T00:22:40;19.90;99.90
25188;DHT22;13141;50.414;8.050;2023-06-10T00:25:06;20.00;99.90
25188;DHT22;13141;50.414;8.050;2023-06-10T00:27:33;20.10;99.90
25188;DHT22;13141;50.414;8.050;2023-06-10T00:29:58;20.20;99.90
25188;DHT22;13141;50.414;8.050;2023-06-10T00:32:24;20.30;99.90
25188;DHT22;13141;50.414;8.050;2023-06-10T00:34:49;20.40;99.90
25188;DHT22;13141;50.414;8.050;2023-06-10T00:37:17;20.60;99.90
25188;DHT22;13141;50.414;8.050;2023-06-10T00:39:42;20.30;99.90
25188;DHT22;13141;50.414;8.050;2023-06-10T00:42:08;20.10;99.90
25188;DHT22;13141;50.414;8.050;2023-06-10T00:44:34;19.90;99.90
25188;DHT22;13141;50.414;8.050;2023-06-10T00:47:01;19.70;99.90
25188;DHT22;13141;50.414;8.050;2023-06-10T00:49:27;19.50;99.90
25188;DHT22;13141;50.414;8.050;2023-06-10T00:51:53;19.40;99.90
25188;DHT22;13141;50.414;8.050;2023-06-10T00:54:20;19.30;99.90
25188;DHT22;13141;50.414;8.050;2023-06-10T00:56:47;19.20;99.90
25188;DHT22;13141;50.414;8.050;2023-06-10T00:59:13;19.10;99.90
25188;DHT22;13141;50.414;8.050;2023-06-10T01:01:38;19.00;99.90
25188;DHT22;13141;50.414;8.050;2023-06-10T01:04:04;18.90;99.90
25188;DHT22;13141;50.414;8.050;2023-06-10T01:06:36;19.00;99.90
25188;DHT22;13141;50.414;8.050;2023-06-10T01:09:11;19.00;99.90
25188;DHT22;13141;50.414;8.050;2023-06-10T01:11:43;18.90;99.90
25188;DHT22;13141;50.414;8.050;2023-06-10T01:14:11;18.90;99.90
25188;DHT22;13141;50.414;8.050;2023-06-10T01:16:37;18.90;99.90
25188;DHT22;13141;50.414;8.050;2023-06-10T01:19:03;18.70;99.90
25188;DHT22;13141;50.414;8.050;2023-06-10T01:21:30;18.70;99.90
25188;DHT22;13141;50.414;8.050;2023-06-10T01:23:56;18.70;99.90
25188;DHT22;13141;50.414;8.050;2023-06-10T01:26:23;18.80;99.90
25188;DHT22;13141;50.414;8.050;2023-06-10T01:28:54;18.70;99.90
25188;DHT22;13141;50.414;8.050;2023-06-10T01:31:31;18.70;99.90
25188;DHT22;13141;50.414;8.050;2023-06-10T01:33:59;18.70;99.90
25188;DHT22;13141;50.414;8.050;2023-06-10T01:36:25;18.90;99.90
25188;DHT22;13141;50.414;8.050;2023-06-10T01:38:54;18.60;99.90
25188;DHT22;13141;50.414;8.050;2023-06-10T01:41:20;18.80;99.90
25188;DHT22;13141;50.414;8.050;2023-06-10T01:43:47;18.60;99.90
25188;DHT22;13141;50.414;8.050;2023-06-10T01:46:13;18.60;99.90
25188;DHT22;13141;50.414;8.050;2023-06-10T01:48:39;18.50;99.90
25188;DHT22;13141;50.414;8.050;2023-06-10T01:51:04;18.60;99.90
25188;DHT22;13141;50.414;8.050;2023-06-10T01:53:30;18.40;99.90
25188;DHT22;13141;50.414;8.050;2023-06-10T01:55:57;18.40;99.90
25188;DHT22;13141;50.414;8.050;2023-06-10T01:58:23;18.40;99.90
25188;DHT22;13141;50.414;8.050;2023-06-10T02:00:48;18.20;99.90
25188;DHT22;13141;50.414;8.050;2023-06-10T02:03:14;18.10;99.90
25188;DHT22;13141;50.414;8.050;2023-06-10T02:05:40;17.90;99.90
25188;DHT22;13141;50.414;8.050;2023-06-10T02:08:05;17.80;99.90
25188;DHT22;13141;50.414;8.050;2023-06-10T02:10:31;18.10;99.90
25188;DHT22;13141;50.414;8.050;2023-06-10T02:12:58;17.90;99.90
25188;DHT22;13141;50.414;8.050;2023-06-10T02:15:24;18.00;99.90
25188;DHT22;13141;50.414;8.050;2023-06-10T02:17:49;18.00;99.90
25188;DHT22;13141;50.414;8.050;2023-06-10T02:20:15;17.40;99.90
25188;DHT22;13141;50.414;8.050;2023-06-10T02:22:41;17.60;99.90
25188;DHT22;13141;50.414;8.050;2023-06-10T02:25:07;17.60;99.90
25188;DHT22;13141;50.414;8.050;2023-06-10T02:27:33;17.70;99.90
25188;DHT22;13141;50.414;8.050;2023-06-10T02:30:00;17.70;99.90
25188;DHT22;13141;50.414;8.050;2023-06-10T02:32:25;17.80;99.90
25188;DHT22;13141;50.414;8.050;2023-06-10T02:34:51;17.80;99.90
25188;DHT22;13141;50.414;8.050;2023-06-10T02:37:17;17.90;99.90
25188;DHT22;13141;50.414;8.050;2023-06-10T02:39:42;17.90;99.90
25188;DHT22;13141;50.414;8.050;2023-06-10T02:42:08;17.90;99.90
25188;DHT22;13141;50.414;8.050;2023-06-10T02:44:34;17.90;99.90
25188;DHT22;13141;50.414;8.050;2023-06-10T02:47:01;17.60;99.90
25188;DHT22;13141;50.414;8.050;2023-06-10T02:49:27;17.70;99.90
25188;DHT22;13141;50.414;8.050;2023-06-10T02:51:52;17.60;99.90
25188;DHT22;13141;50.414;8.050;2023-06-10T02:54:18;17.60;99.90
25188;DHT22;13141;50.414;8.050;2023-06-10T02:56:43;17.40;99.90
25188;DHT22;13141;50.414;8.050;2023-06-10T02:59:09;17.50;99.90
25188;DHT22;13141;50.414;8.050;2023-06-10T03:01:34;17.30;99.90
25188;DHT22;13141;50.414;8.050;2023-06-10T03:04:02;17.20;99.90
25188;DHT22;13141;50.414;8.050;2023-06-10T03:06:27;16.90;99.90
25188;DHT22;13141;50.414;8.050;2023-06-10T03:08:53;16.80;99.90
25188;DHT22;13141;50.414;8.050;2023-06-10T03:11:19;16.80;99.90
25188;DHT22;13141;50.414;8.050;2023-06-10T03:13:44;16.90;99.90
25188;DHT22;13141;50.414;8.050;2023-06-10T03:16:10;17.10;99.90
25188;DHT22;13141;50.414;8.050;2023-06-10T03:18:36;17.10;99.90
25188;DHT22;13141;50.414;8.050;2023-06-10T03:21:03;17.10;99.90
25188;DHT22;13141;50.414;8.050;2023-06-10T03:23:28;17.20;99.90
25188;DHT22;13141;50.414;8.050;2023-06-10T03:25:54;17.20;99.90
25188;DHT22;13141;50.414;8.050;2023-06-10T03:28:20;17.10;99.90
25188;DHT22;13141;50.414;8.050;2023-06-10T03:30:45;17.00;99.90
25188;DHT22;13141;50.414;8.050;2023-06-10T03:33:11;17.00;99.90
25188;DHT22;13141;50.414;8.050;2023-06-10T03:35:37;17.10;99.90
25188;DHT22;13141;50.414;8.050;2023-06-10T03:38:04;17.10;99.90
25188;DHT22;13141;50.414;8.050;2023-06-10T03:40:29;17.10;99.90
25188;DHT22;13141;50.414;8.050;2023-06-10T03:42:55;17.00;99.90
25188;DHT22;13141;50.414;8.050;2023-06-10T03:45:21;16.80;99.90
25188;DHT22;13141;50.414;8.050;2023-06-10T03:47:46;16.60;99.90
25188;DHT22;13141;50.414;8.050;2023-06-10T03:50:12;16.50;99.90
25188;DHT22;13141;50.414;8.050;2023-06-10T03:52:38;16.40;99.90
25188;DHT22;13141;50.414;8.050;2023-06-10T03:55:06;16.30;99.90
25188;DHT22;13141;50.414;8.050;2023-06-10T03:57:32;16.30;99.90
25188;DHT22;13141;50.414;8.050;2023-06-10T03:59:58;16.30;99.90
25188;DHT22;13141;50.414;8.050;2023-06-10T04:02:23;16.30;99.90
25188;DHT22;13141;50.414;8.050;2023-06-10T04:04:49;16.40;99.90
25188;DHT22;13141;50.414;8.050;2023-06-10T04:07:15;16.50;99.90
25188;DHT22;13141;50.414;8.050;2023-06-10T04:09:40;16.50;99.90
25188;DHT22;13141;50.414;8.050;2023-06-10T04:12:08;16.50;99.90
25188;DHT22;13141;50.414;8.050;2023-06-10T04:14:34;16.40;99.90
25188;DHT22;13141;50.414;8.050;2023-06-10T04:17:00;16.50;99.90
25188;DHT22;13141;50.414;8.050;2023-06-10T04:19:25;16.50;99.90
25188;DHT22;13141;50.414;8.050;2023-06-10T04:21:51;16.60;99.90
25188;DHT22;13141;50.414;8.050;2023-06-10T04:24:16;16.60;99.90
25188;DHT22;13141;50.414;8.050;2023-06-10T04:26:42;16.70;99.90
25188;DHT22;13141;50.414;8.050;2023-06-10T04:29:09;16.70;99.90
25188;DHT22;13141;50.414;8.050;2023-06-10T04:31:35;16.70;99.90
25188;DHT22;13141;50.414;8.050;2023-06-10T04:34:00;16.70;99.90
25188;DHT22;13141;50.414;8.050;2023-06-10T04:36:26;16.70;99.90
25188;DHT22;13141;50.414;8.050;2023-06-10T04:38:52;16.70;99.90
25188;DHT22;13141;50.414;8.050;2023-06-10T04:41:17;16.80;99.90
25188;DHT22;13141;50.414;8.050;2023-06-10T04:43:43;16.70;99.90
25188;DHT22;13141;50.414;8.050;2023-06-10T04:46:10;16.70;99.90
25188;DHT22;13141;50.414;8.050;2023-06-10T04:48:37;16.70;99.90
25188;DHT22;13141;50.414;8.050;2023-06-10T04:51:03;16.60;99.90
25188;DHT22;13141;50.414;8.050;2023-06-10T04:53:28;16.60;99.90
25188;DHT22;13141;50.414;8.050;2023-06-10T04:55:54;16.70;99.90
25188;DHT22;13141;50.414;8.050;2023-06-10T04:58:20;16.70;99.90
25188;DHT22;13141;50.414;8.050;2023-06-10T05:00:46;16.70;99.90
25188;DHT22;13141;50.414;8.050;2023-06-10T05:03:13;16.80;99.90
25188;DHT22;13141;50.414;8.050;2023-06-10T05:05:39;17.00;99.90
25188;DHT22;13141;50.414;8.050;2023-06-10T05:08:04;17.00;99.90
25188;DHT22;13141;50.414;8.050;2023-06-10T05:10:30;17.00;99.90
25188;DHT22;13141;50.414;8.050;2023-06-10T05:12:56;17.10;99.90
25188;DHT22;13141;50.414;8.050;2023-06-10T05:15:21;17.10;99.90
25188;DHT22;13141;50.414;8.050;2023-06-10T05:17:47;17.10;99.90
25188;DHT22;13141;50.414;8.050;2023-06-10T05:20:14;17.20;99.90
25188;DHT22;13141;50.414;8.050;2023-06-10T05:22:39;17.20;99.90
25188;DHT22;13141;50.414;8.050;2023-06-10T05:25:06;17.20;99.90
25188;DHT22;13141;50.414;8.050;2023-06-10T05:27:32;17.20;99.90
25188;DHT22;13141;50.414;8.050;2023-06-10T05:29:58;17.30;99.90
25188;DHT22;13141;50.414;8.050;2023-06-10T05:32:23;17.30;99.90
25188;DHT22;13141;50.414;8.050;2023-06-10T05:34:49;17.30;99.90
25188;DHT22;13141;50.414;8.050;2023-06-10T05:37:16;17.30;99.90
25188;DHT22;13141;50.414;8.050;2023-06-10T05:39:42;17.30;99.90
25188;DHT22;13141;50.414;8.050;2023-06-10T05:42:08;17.30;99.90
25188;DHT22;13141;50.414;8.050;2023-06-10T05:44:33;17.40;99.90
25188;DHT22;13141;50.414;8.050;2023-06-10T05:46:59;17.60;99.90
25188;DHT22;13141;50.414;8.050;2023-06-10T05:49:25;17.90;99.90
25188;DHT22;13141;50.414;8.050;2023-06-10T05:51:50;17.70;99.90
25188;DHT22;13141;50.414;8.050;2023-06-10T05:54:17;17.80;99.90
25188;DHT22;13141;50.414;8.050;2023-06-10T05:56:43;17.90;99.90
25188;DHT22;13141;50.414;8.050;2023-06-10T05:59:09;18.00;99.90
25188;DHT22;13141;50.414;8.050;2023-06-10T06:01:35;18.00;99.90
25188;DHT22;13141;50.414;8.050;2023-06-10T06:04:00;18.00;99.90
25188;DHT22;13141;50.414;8.050;2023-06-10T06:06:29;18.40;99.90
25188;DHT22;13141;50.414;8.050;2023-06-10T06:08:55;18.10;99.90
25188;DHT22;13141;50.414;8.050;2023-06-10T06:11:24;18.20;99.90
25188;DHT22;13141;50.414;8.050;2023-06-10T06:13:52;18.30;99.90
25188;DHT22;13141;50.414;8.050;2023-06-10T06:16:17;18.40;99.90
25188;DHT22;13141;50.414;8.050;2023-06-10T06:18:45;18.60;99.90
25188;DHT22;13141;50.414;8.050;2023-06-10T06:21:11;18.80;99.90
25188;DHT22;13141;50.414;8.050;2023-06-10T06:23:37;18.70;99.90
25188;DHT22;13141;50.414;8.050;2023-06-10T06:26:02;18.80;99.90
25188;DHT22;13141;50.414;8.050;2023-06-10T06:28:29;18.90;99.90
25188;DHT22;13141;50.414;8.050;2023-06-10T06:30:55;19.00;99.90
25188;DHT22;13141;50.414;8.050;2023-06-10T06:33:21;19.10;99.90
25188;DHT22;13141;50.414;8.050;2023-06-10T06:35:48;19.10;99.90
25188;DHT22;13141;50.414;8.050;2023-06-10T06:38:14;19.20;99.90
25188;DHT22;13141;50.414;8.050;2023-06-10T06:40:40;19.30;99.90
25188;DHT22;13141;50.414;8.050;2023-06-10T06:43:06;19.40;99.90
25188;DHT22;13141;50.414;8.050;2023-06-10T06:45:33;19.50;99.90
25188;DHT22;13141;50.414;8.050;2023-06-10T06:47:58;19.60;99.90
25188;DHT22;13141;50.414;8.050;2023-06-10T06:50:24;19.70;99.90
25188;DHT22;13141;50.414;8.050;2023-06-10T06:52:50;20.00;99.90
25188;DHT22;13141;50.414;8.050;2023-06-10T06:55:15;19.90;99.90
25188;DHT22;13141;50.414;8.050;2023-06-10T06:57:43;19.90;99.90
25188;DHT22;13141;50.414;8.050;2023-06-10T07:00:09;20.00;99.90
25188;DHT22;13141;50.414;8.050;2023-06-10T07:02:37;20.20;99.90
25188;DHT22;13141;50.414;8.050;2023-06-10T07:05:03;20.30;99.90
25188;DHT22;13141;50.414;8.050;2023-06-10T07:07:28;20.40;99.90
25188;DHT22;13141;50.414;8.050;2023-06-10T07:09:54;20.50;99.90
25188;DHT22;13141;50.414;8.050;2023-06-10T07:12:20;20.70;99.90
25188;DHT22;13141;50.414;8.050;2023-06-10T07:14:48;21.00;99.90
25188;DHT22;13141;50.414;8.050;2023-06-10T07:17:14;21.50;99.90
25188;DHT22;13141;50.414;8.050;2023-06-10T07:19:41;21.90;99.90
25188;DHT22;13141;50.414;8.050;2023-06-10T07:22:06;22.30;99.90
25188;DHT22;13141;50.414;8.050;2023-06-10T07:24:32;22.60;99.90
25188;DHT22;13141;50.414;8.050;2023-06-10T07:26:58;22.90;99.90
25188;DHT22;13141;50.414;8.050;2023-06-10T07:29:26;23.20;99.90
25188;DHT22;13141;50.414;8.050;2023-06-10T07:31:52;23.40;99.90
25188;DHT22;13141;50.414;8.050;2023-06-10T07:34:18;23.60;99.90
25188;DHT22;13141;50.414;8.050;2023-06-10T07:36:45;23.90;99.90
25188;DHT22;13141;50.414;8.050;2023-06-10T07:39:10;24.10;99.90
25188;DHT22;13141;50.414;8.050;2023-06-10T07:41:36;24.30;99.80
25188;DHT22;13141;50.414;8.050;2023-06-10T07:44:02;24.50;99.60
25188;DHT22;13141;50.414;8.050;2023-06-10T07:46:33;24.80;99.90
25188;DHT22;13141;50.414;8.050;2023-06-10T07:48:59;25.00;98.70
25188;DHT22;13141;50.414;8.050;2023-06-10T07:51:27;25.00;98.70
25188;DHT22;13141;50.414;8.050;2023-06-10T07:53:54;25.20;98.70
25188;DHT22;13141;50.414;8.050;2023-06-10T07:56:20;25.40;98.50
25188;DHT22;13141;50.414;8.050;2023-06-10T07:58:45;25.60;98.20
25188;DHT22;13141;50.414;8.050;2023-06-10T08:01:11;25.70;97.00
25188;DHT22;13141;50.414;8.050;2023-06-10T08:03:39;25.80;97.80
25188;DHT22;13141;50.414;8.050;2023-06-10T08:06:04;25.90;96.80
25188;DHT22;13141;50.414;8.050;2023-06-10T08:08:30;26.10;96.60
25188;DHT22;13141;50.414;8.050;2023-06-10T08:10:57;26.20;97.50
25188;DHT22;13141;50.414;8.050;2023-06-10T08:13:25;26.40;96.70
25188;DHT22;13141;50.414;8.050;2023-06-10T08:15:50;26.70;96.80
25188;DHT22;13141;50.414;8.050;2023-06-10T08:18:16;26.70;96.30
25188;DHT22;13141;50.414;8.050;2023-06-10T08:20:42;27.00;96.30
25188;DHT22;13141;50.414;8.050;2023-06-10T08:23:08;27.20;95.70
25188;DHT22;13141;50.414;8.050;2023-06-10T08:25:34;27.30;95.80
25188;DHT22;13141;50.414;8.050;2023-06-10T08:28:01;27.50;96.00
25188;DHT22;13141;50.414;8.050;2023-06-10T08:30:29;27.80;96.10
25188;DHT22;13141;50.414;8.050;2023-06-10T08:32:55;28.10;95.80
25188;DHT22;13141;50.414;8.050;2023-06-10T08:35:21;28.30;95.80
25188;DHT22;13141;50.414;8.050;2023-06-10T08:37:47;28.40;94.60
25188;DHT22;13141;50.414;8.050;2023-06-10T08:40:13;28.50;93.90
25188;DHT22;13141;50.414;8.050;2023-06-10T08:42:40;28.60;93.60
25188;DHT22;13141;50.414;8.050;2023-06-10T08:45:16;28.60;93.50
25188;DHT22;13141;50.414;8.050;2023-06-10T08:47:50;28.80;92.20
25188;DHT22;13141;50.414;8.050;2023-06-10T08:50:16;29.00;93.50
25188;DHT22;13141;50.414;8.050;2023-06-10T08:52:43;29.20;92.90
25188;DHT22;13141;50.414;8.050;2023-06-10T08:55:11;29.50;94.20
25188;DHT22;13141;50.414;8.050;2023-06-10T08:57:37;29.70;93.80
25188;DHT22;13141;50.414;8.050;2023-06-10T09:00:04;29.90;92.80
25188;DHT22;13141;50.414;8.050;2023-06-10T09:02:33;30.10;92.10
25188;DHT22;13141;50.414;8.050;2023-06-10T09:04:59;30.40;91.20
25188;DHT22;13141;50.414;8.050;2023-06-10T09:07:26;30.70;90.40
25188;DHT22;13141;50.414;8.050;2023-06-10T09:09:52;30.80;90.90
25188;DHT22;13141;50.414;8.050;2023-06-10T09:12:18;30.90;90.30
25188;DHT22;13141;50.414;8.050;2023-06-10T09:14:47;31.10;88.70
25188;DHT22;13141;50.414;8.050;2023-06-10T09:17:13;31.30;88.00
25188;DHT22;13141;50.414;8.050;2023-06-10T09:19:40;31.50;85.00
25188;DHT22;13141;50.414;8.050;2023-06-10T09:22:13;31.60;86.60
25188;DHT22;13141;50.414;8.050;2023-06-10T09:24:39;31.70;84.70
25188;DHT22;13141;50.414;8.050;2023-06-10T09:27:06;31.70;86.80
25188;DHT22;13141;50.414;8.050;2023-06-10T09:29:35;31.80;84.70
25188;DHT22;13141;50.414;8.050;2023-06-10T09:32:10;31.90;82.90
25188;DHT22;13141;50.414;8.050;2023-06-10T09:34:36;32.00;85.10
25188;DHT22;13141;50.414;8.050;2023-06-10T09:37:03;32.30;85.10
25188;DHT22;13141;50.414;8.050;2023-06-10T09:39:30;32.50;81.80
25188;DHT22;13141;50.414;8.050;2023-06-10T09:41:55;32.70;82.20
25188;DHT22;13141;50.414;8.050;2023-06-10T09:44:21;32.90;81.40
25188;DHT22;13141;50.414;8.050;2023-06-10T09:46:49;33.00;80.60
25188;DHT22;13141;50.414;8.050;2023-06-10T09:49:16;33.20;79.70
25188;DHT22;13141;50.414;8.050;2023-06-10T09:51:49;33.30;78.70
25188;DHT22;13141;50.414;8.050;2023-06-10T09:54:17;33.60;78.60
25188;DHT22;13141;50.414;8.050;2023-06-10T09:56:43;33.90;77.80
25188;DHT22;13141;50.414;8.050;2023-06-10T09:59:08;34.10;73.70
25188;DHT22;13141;50.414;8.050;2023-06-10T10:01:34;34.10;74.00
25188;DHT22;13141;50.414;8.050;2023-06-10T10:04:00;34.10;70.00
25188;DHT22;13141;50.414;8.050;2023-06-10T10:06:26;34.30;73.70
25188;DHT22;13141;50.414;8.050;2023-06-10T10:08:53;34.40;71.10
25188;DHT22;13141;50.414;8.050;2023-06-10T10:11:22;34.50;70.00
25188;DHT22;13141;50.414;8.050;2023-06-10T10:13:50;34.60;67.50
25188;DHT22;13141;50.414;8.050;2023-06-10T10:16:19;34.60;67.10
25188;DHT22;13141;50.414;8.050;2023-06-10T10:18:49;34.80;65.00
25188;DHT22;13141;50.414;8.050;2023-06-10T10:21:22;34.90;65.00
25188;DHT22;13141;50.414;8.050;2023-06-10T10:23:53;35.00;64.50
25188;DHT22;13141;50.414;8.050;2023-06-10T10:26:21;35.10;64.10
25188;DHT22;13141;50.414;8.050;2023-06-10T10:28:53;35.20;61.70
25188;DHT22;13141;50.414;8.050;2023-06-10T10:31:21;35.10;60.30
25188;DHT22;13141;50.414;8.050;2023-06-10T10:33:54;35.00;62.10
25188;DHT22;13141;50.414;8.050;2023-06-10T10:36:21;35.30;63.40
25188;DHT22;13141;50.414;8.050;2023-06-10T10:38:47;35.30;62.50
25188;DHT22;13141;50.414;8.050;2023-06-10T10:41:14;35.70;62.90
25188;DHT22;13141;50.414;8.050;2023-06-10T10:43:42;35.90;61.10
25188;DHT22;13141;50.414;8.050;2023-06-10T10:46:12;36.10;58.50
25188;DHT22;13141;50.414;8.050;2023-06-10T10:48:38;36.00;60.30
25188;DHT22;13141;50.414;8.050;2023-06-10T10:51:04;36.10;59.20
25188;DHT22;13141;50.414;8.050;2023-06-10T10:53:32;36.20;57.70
25188;DHT22;13141;50.414;8.050;2023-06-10T10:55:59;36.30;58.10
25188;DHT22;13141;50.414;8.050;2023-06-10T10:58:25;36.60;59.10
25188;DHT22;13141;50.414;8.050;2023-06-10T11:00:52;36.70;58.00
25188;DHT22;13141;50.414;8.050;2023-06-10T11:03:18;36.80;57.10
25188;DHT22;13141;50.414;8.050;2023-06-10T11:05:45;37.10;57.30
25188;DHT22;13141;50.414;8.050;2023-06-10T11:08:12;37.00;55.50
25188;DHT22;13141;50.414;8.050;2023-06-10T11:10:39;36.90;54.60
25188;DHT22;13141;50.414;8.050;2023-06-10T11:13:09;36.60;53.80
25188;DHT22;13141;50.414;8.050;2023-06-10T11:15:39;36.10;53.10
25188;DHT22;13141;50.414;8.050;2023-06-10T11:18:15;36.30;55.40
25188;DHT22;13141;50.414;8.050;2023-06-10T11:20:59;36.50;54.80
25188;DHT22;13141;50.414;8.050;2023-06-10T11:23:38;36.60;52.00
25188;DHT22;13141;50.414;8.050;2023-06-10T11:26:18;36.70;50.80
25188;DHT22;13141;50.414;8.050;2023-06-10T11:29:07;36.50;51.50
25188;DHT22;13141;50.414;8.050;2023-06-10T11:31:37;36.60;52.60
25188;DHT22;13141;50.414;8.050;2023-06-10T11:34:06;37.00;53.30
25188;DHT22;13141;50.414;8.050;2023-06-10T11:36:33;37.10;52.80
25188;DHT22;13141;50.414;8.050;2023-06-10T11:39:03;37.20;52.40
25188;DHT22;13141;50.414;8.050;2023-06-10T11:41:30;36.90;52.70
25188;DHT22;13141;50.414;8.050;2023-06-10T11:44:05;36.70;52.50
25188;DHT22;13141;50.414;8.050;2023-06-10T11:46:32;36.70;52.90
25188;DHT22;13141;50.414;8.050;2023-06-10T11:48:59;36.70;50.70
25188;DHT22;13141;50.414;8.050;2023-06-10T11:51:34;37.00;52.30
25188;DHT22;13141;50.414;8.050;2023-06-10T11:54:01;37.00;50.70
25188;DHT22;13141;50.414;8.050;2023-06-10T11:56:32;37.30;51.30
25188;DHT22;13141;50.414;8.050;2023-06-10T11:58:59;37.20;50.50
25188;DHT22;13141;50.414;8.050;2023-06-10T12:01:34;37.30;51.20
25188;DHT22;13141;50.414;8.050;2023-06-10T12:04:02;37.20;49.20
25188;DHT22;13141;50.414;8.050;2023-06-10T12:06:37;36.90;49.00
25188;DHT22;13141;50.414;8.050;2023-06-10T12:09:03;36.90;51.70
25188;DHT22;13141;50.414;8.050;2023-06-10T12:11:29;37.30;49.00
25188;DHT22;13141;50.414;8.050;2023-06-10T12:13:55;37.40;49.70
25188;DHT22;13141;50.414;8.050;2023-06-10T12:16:21;37.40;48.40
25188;DHT22;13141;50.414;8.050;2023-06-10T12:18:46;37.40;48.10
25188;DHT22;13141;50.414;8.050;2023-06-10T12:21:19;37.50;48.80
25188;DHT22;13141;50.414;8.050;2023-06-10T12:24:02;37.60;49.50
25188;DHT22;13141;50.414;8.050;2023-06-10T12:26:35;37.80;48.30
25188;DHT22;13141;50.414;8.050;2023-06-10T12:29:01;38.00;48.50
25188;DHT22;13141;50.414;8.050;2023-06-10T12:31:27;38.20;49.70
25188;DHT22;13141;50.414;8.050;2023-06-10T12:34:07;38.40;48.80
25188;DHT22;13141;50.414;8.050;2023-06-10T12:36:33;38.60;45.20
25188;DHT22;13141;50.414;8.050;2023-06-10T12:39:04;38.60;46.70
25188;DHT22;13141;50.414;8.050;2023-06-10T12:41:29;38.70;46.00
25188;DHT22;13141;50.414;8.050;2023-06-10T12:43:55;38.60;43.70
25188;DHT22;13141;50.414;8.050;2023-06-10T12:46:20;38.20;42.40
25188;DHT22;13141;50.414;8.050;2023-06-10T12:48:50;38.10;43.00
25188;DHT22;13141;50.414;8.050;2023-06-10T12:51:15;38.10;42.70
25188;DHT22;13141;50.414;8.050;2023-06-10T12:53:41;38.20;42.60
25188;DHT22;13141;50.414;8.050;2023-06-10T12:56:08;38.40;42.30
25188;DHT22;13141;50.414;8.050;2023-06-10T12:58:34;38.40;42.50
25188;DHT22;13141;50.414;8.050;2023-06-10T13:01:00;38.50;41.40
25188;DHT22;13141;50.414;8.050;2023-06-10T13:03:26;38.50;42.60
25188;DHT22;13141;50.414;8.050;2023-06-10T13:05:51;38.70;41.80
25188;DHT22;13141;50.414;8.050;2023-06-10T13:08:17;38.80;40.70
25188;DHT22;13141;50.414;8.050;2023-06-10T13:10:43;38.90;40.40
25188;DHT22;13141;50.414;8.050;2023-06-10T13:13:10;38.90;40.80
25188;DHT22;13141;50.414;8.050;2023-06-10T13:15:36;38.80;39.70
25188;DHT22;13141;50.414;8.050;2023-06-10T13:18:01;38.80;41.10
25188;DHT22;13141;50.414;8.050;2023-06-10T13:20:27;38.80;39.60
25188;DHT22;13141;50.414;8.050;2023-06-10T13:22:53;38.40;39.90
25188;DHT22;13141;50.414;8.050;2023-06-10T13:25:19;38.90;39.30
25188;DHT22;13141;50.414;8.050;2023-06-10T13:27:44;39.00;40.40
25188;DHT22;13141;50.414;8.050;2023-06-10T13:30:12;39.20;39.50
25188;DHT22;13141;50.414;8.050;2023-06-10T13:32:38;39.30;40.00
25188;DHT22;13141;50.414;8.050;2023-06-10T13:35:04;39.50;40.00
25188;DHT22;13141;50.414;8.050;2023-06-10T13:37:30;39.60;39.40
25188;DHT22;13141;50.414;8.050;2023-06-10T13:39:55;39.50;40.00
25188;DHT22;13141;50.414;8.050;2023-06-10T13:42:21;39.40;38.80
25188;DHT22;13141;50.414;8.050;2023-06-10T13:44:47;39.40;39.20
25188;DHT22;13141;50.414;8.050;2023-06-10T13:47:15;39.40;39.00
25188;DHT22;13141;50.414;8.050;2023-06-10T13:49:41;39.30;38.80
25188;DHT22;13141;50.414;8.050;2023-06-10T13:52:07;39.20;39.70
25188;DHT22;13141;50.414;8.050;2023-06-10T13:54:33;39.00;39.40
25188;DHT22;13141;50.414;8.050;2023-06-10T13:56:59;39.00;39.20
25188;DHT22;13141;50.414;8.050;2023-06-10T13:59:25;39.10;40.80
25188;DHT22;13141;50.414;8.050;2023-06-10T14:01:51;39.30;40.70
25188;DHT22;13141;50.414;8.050;2023-06-10T14:04:18;39.40;40.10
25188;DHT22;13141;50.414;8.050;2023-06-10T14:06:44;39.40;39.10
25188;DHT22;13141;50.414;8.050;2023-06-10T14:09:12;39.40;39.30
25188;DHT22;13141;50.414;8.050;2023-06-10T14:11:38;39.50;40.20
25188;DHT22;13141;50.414;8.050;2023-06-10T14:14:04;39.40;39.40
25188;DHT22;13141;50.414;8.050;2023-06-10T14:16:29;39.20;39.80
25188;DHT22;13141;50.414;8.050;2023-06-10T14:18:55;39.00;38.80
25188;DHT22;13141;50.414;8.050;2023-06-10T14:21:23;39.00;39.10
25188;DHT22;13141;50.414;8.050;2023-06-10T14:23:49;38.80;37.80
25188;DHT22;13141;50.414;8.050;2023-06-10T14:26:15;38.80;38.90
25188;DHT22;13141;50.414;8.050;2023-06-10T14:28:41;38.90;40.20
25188;DHT22;13141;50.414;8.050;2023-06-10T14:31:06;39.00;38.90
25188;DHT22;13141;50.414;8.050;2023-06-10T14:33:32;39.00;39.50
25188;DHT22;13141;50.414;8.050;2023-06-10T14:35:58;39.10;40.20
25188;DHT22;13141;50.414;8.050;2023-06-10T14:38:26;39.10;39.20
25188;DHT22;13141;50.414;8.050;2023-06-10T14:40:52;39.10;40.40
25188;DHT22;13141;50.414;8.050;2023-06-10T14:43:18;39.10;40.40
25188;DHT22;13141;50.414;8.050;2023-06-10T14:45:44;39.10;40.20
25188;DHT22;13141;50.414;8.050;2023-06-10T14:48:10;39.20;40.20
25188;DHT22;13141;50.414;8.050;2023-06-10T14:50:35;39.20;39.90
25188;DHT22;13141;50.414;8.050;2023-06-10T14:53:01;39.20;40.90
25188;DHT22;13141;50.414;8.050;2023-06-10T14:55:29;39.40;40.60
25188;DHT22;13141;50.414;8.050;2023-06-10T14:57:55;39.60;41.20
25188;DHT22;13141;50.414;8.050;2023-06-10T15:00:21;39.70;40.40
25188;DHT22;13141;50.414;8.050;2023-06-10T15:02:46;39.60;39.90
25188;DHT22;13141;50.414;8.050;2023-06-10T15:05:12;39.50;39.90
25188;DHT22;13141;50.414;8.050;2023-06-10T15:07:38;39.00;40.00
25188;DHT22;13141;50.414;8.050;2023-06-10T15:10:05;38.90;39.50
25188;DHT22;13141;50.414;8.050;2023-06-10T15:12:32;38.70;39.10
25188;DHT22;13141;50.414;8.050;2023-06-10T15:14:58;38.50;40.10
25188;DHT22;13141;50.414;8.050;2023-06-10T15:17:24;38.50;40.40
25188;DHT22;13141;50.414;8.050;2023-06-10T15:19:51;38.40;38.90
25188;DHT22;13141;50.414;8.050;2023-06-10T15:22:17;38.40;40.60
25188;DHT22;13141;50.414;8.050;2023-06-10T15:24:43;38.50;40.60
25188;DHT22;13141;50.414;8.050;2023-06-10T15:27:09;38.80;40.80